Time;durP1;ratioP1;P1;durP2;ratioP2;P2;SDS_P1;SDS_P2;PMS_P1;PMS_P2;Temp;Humidity;BMP_temperature;BMP_pressure;BME280_temperature;BME280_humidity;BME280_pressure;Samples;Min_cycle;Max_cycle;Signal;HPM_P1;HPM_P2
2023/01/25 00:00:10;;;;;;;45.33;27.20;;;;;;;;;;5098517;28;20059;-72
2023/01/25 00:02:36;;;;;;;43.08;25.88;;;;;;;;;;5097759;28;20043;-72
2023/01/25 00:05:02;;;;;;;43.58;26.40;;;;;;;;;;5096552;28;20051;-72
2023/01/25 00:07:29;;;;;;;47.05;27.33;;;;;;;;;;5089126;28;20126;-72
2023/01/25 00:09:55;;;;;;;46.53;26.58;;;;;;;;;;5095950;28;20123;-72
2023/01/25 00:12:21;;;;;;;43.75;26.00;;;;;;;;;;5097115;28;20062;-72
2023/01/25 00:14:47;;;;;;;46.15;27.17;;;;;;;;;;5095711;27;20058;-72
2023/01/25 00:17:13;;;;;;;48.70;27.70;;;;;;;;;;5098581;28;20471;-72
2023/01/25 00:19:39;;;;;;;49.90;26.30;;;;;;;;;;5093275;28;20079;-72
2023/01/25 00:22:05;;;;;;;42.70;25.17;;;;;;;;;;5097813;28;20054;-72
2023/01/25 00:24:32;;;;;;;45.92;26.88;;;;;;;;;;5096735;28;20036;-72
2023/01/25 00:26:58;;;;;;;46.33;28.10;;;;;;;;;;5094334;28;20189;-72
2023/01/25 00:29:24;;;;;;;45.35;27.50;;;;;;;;;;5096143;28;20028;-72
2023/01/25 00:31:57;;;;;;;48.13;27.23;;;;;;;;;;5093532;28;20478;-72
2023/01/25 00:34:23;;;;;;;44.80;26.88;;;;;;;;;;5097584;28;20051;-72
2023/01/25 00:36:55;;;;;;;47.10;27.83;;;;;;;;;;5096621;28;20499;-72
2023/01/25 00:39:22;;;;;;;47.65;28.00;;;;;;;;;;5091745;28;20059;-71
2023/01/25 00:41:48;;;;;;;49.90;27.23;;;;;;;;;;5091153;28;20048;-71
2023/01/25 00:44:14;;;;;;;47.00;26.40;;;;;;;;;;5099819;27;20055;-72
2023/01/25 00:46:40;;;;;;;47.78;27.95;;;;;;;;;;5078350;28;20551;-72
2023/01/25 00:49:07;;;;;;;47.53;25.75;;;;;;;;;;5097845;28;20036;-72
2023/01/25 00:51:33;;;;;;;51.22;26.73;;;;;;;;;;5101140;28;20070;-72
2023/01/25 00:53:59;;;;;;;50.42;27.55;;;;;;;;;;5096201;28;20119;-72
2023/01/25 00:56:25;;;;;;;43.92;26.05;;;;;;;;;;5096755;28;20054;-72
2023/01/25 00:58:51;;;;;;;48.13;26.52;;;;;;;;;;5096131;28;20036;-72
2023/01/25 01:01:17;;;;;;;51.85;27.75;;;;;;;;;;5098083;28;20059;-72
2023/01/25 01:03:44;;;;;;;45.47;26.67;;;;;;;;;;5095355;28;20043;-72
2023/01/25 01:06:11;;;;;;;46.55;28.08;;;;;;;;;;5097794;28;20040;-72
2023/01/25 01:08:39;;;;;;;42.38;24.60;;;;;;;;;;5096023;28;20122;-72
2023/01/25 01:11:06;;;;;;;47.30;27.65;;;;;;;;;;5096716;27;20036;-72
2023/01/25 01:13:33;;;;;;;46.28;27.02;;;;;;;;;;5095575;28;20040;-72
2023/01/25 01:16:02;;;;;;;44.58;26.20;;;;;;;;;;5097876;28;20043;-72
2023/01/25 01:18:28;;;;;;;48.88;27.33;;;;;;;;;;5080469;28;20495;-72
2023/01/25 01:20:55;;;;;;;47.80;27.95;;;;;;;;;;5079498;28;20052;-72
2023/01/25 01:23:21;;;;;;;51.03;27.42;;;;;;;;;;5098523;27;20035;-72
2023/01/25 01:25:47;;;;;;;48.78;27.95;;;;;;;;;;5097328;28;20115;-72
2023/01/25 01:28:13;;;;;;;48.40;27.35;;;;;;;;;;5084222;28;20055;-72
2023/01/25 01:30:40;;;;;;;49.47;26.25;;;;;;;;;;5094901;28;20083;-72
2023/01/25 01:33:06;;;;;;;47.67;27.20;;;;;;;;;;5098978;28;20382;-72
2023/01/25 01:35:32;;;;;;;46.90;26.30;;;;;;;;;;5098845;28;20236;-72
2023/01/25 01:37:59;;;;;;;51.45;25.92;;;;;;;;;;5078577;28;20042;-72
2023/01/25 01:40:25;;;;;;;45.33;24.75;;;;;;;;;;5095976;28;20039;-71
2023/01/25 01:43:03;;;;;;;43.05;23.33;;;;;;;;;;5079190;28;20074;-71
2023/01/25 01:45:48;;;;;;;42.45;23.92;;;;;;;;;;5095203;28;20067;-71
2023/01/25 01:48:16;;;;;;;45.13;24.50;;;;;;;;;;5090942;28;20369;-71
2023/01/25 01:50:42;;;;;;;44.78;26.27;;;;;;;;;;5091201;28;20047;-71
2023/01/25 01:53:08;;;;;;;43.97;24.15;;;;;;;;;;5091819;28;20076;-71
2023/01/25 01:55:35;;;;;;;43.55;22.63;;;;;;;;;;5089721;28;20050;-71
2023/01/25 01:58:02;;;;;;;44.00;23.60;;;;;;;;;;5088434;28;20039;-71
2023/01/25 02:00:30;;;;;;;41.90;22.98;;;;;;;;;;5096557;28;20071;-71
2023/01/25 02:02:58;;;;;;;49.30;24.90;;;;;;;;;;5095146;28;20208;-71
2023/01/25 02:05:35;;;;;;;48.13;24.30;;;;;;;;;;5094700;28;20052;-71
2023/01/25 02:08:03;;;;;;;50.92;26.35;;;;;;;;;;5097085;28;20388;-71
2023/01/25 02:10:30;;;;;;;46.15;24.73;;;;;;;;;;5096354;28;21010;-71
2023/01/25 02:12:57;;;;;;;51.72;26.15;;;;;;;;;;5096002;28;20187;-71
2023/01/25 02:15:23;;;;;;;47.13;24.90;;;;;;;;;;5094779;28;20616;-71
2023/01/25 02:17:50;;;;;;;52.00;25.88;;;;;;;;;;5096419;28;20233;-71
2023/01/25 02:20:28;;;;;;;50.45;26.30;;;;;;;;;;5091410;28;21455;-71
2023/01/25 02:23:01;;;;;;;49.85;26.27;;;;;;;;;;5093173;28;20069;-71
2023/01/25 02:25:27;;;;;;;56.45;27.77;;;;;;;;;;5090337;28;20743;-71
2023/01/25 02:27:57;;;;;;;53.35;28.08;;;;;;;;;;5095473;28;20036;-71
2023/01/25 02:30:23;;;;;;;56.00;28.10;;;;;;;;;;5095606;28;21206;-71
2023/01/25 02:32:50;;;;;;;59.08;29.35;;;;;;;;;;5098922;28;20123;-71
2023/01/25 02:35:18;;;;;;;61.53;30.70;;;;;;;;;;5096432;28;20460;-71
2023/01/25 02:37:45;;;;;;;63.17;31.35;;;;;;;;;;5098226;28;20043;-71
2023/01/25 02:40:11;;;;;;;58.00;28.45;;;;;;;;;;5095370;28;20042;-71
2023/01/25 02:42:41;;;;;;;59.88;29.88;;;;;;;;;;5088899;28;20056;-71
2023/01/25 02:45:09;;;;;;;59.70;30.98;;;;;;;;;;5096767;28;20181;-71
2023/01/25 02:47:35;;;;;;;60.65;29.38;;;;;;;;;;5095730;28;20051;-71
2023/01/25 02:50:02;;;;;;;62.88;29.83;;;;;;;;;;5094410;28;20058;-71
2023/01/25 02:52:28;;;;;;;67.18;31.88;;;;;;;;;;5095703;28;20043;-71
2023/01/25 02:54:54;;;;;;;61.13;32.00;;;;;;;;;;5095588;28;20051;-71
2023/01/25 02:57:20;;;;;;;68.68;34.55;;;;;;;;;;5101762;28;20566;-71
2023/01/25 02:59:47;;;;;;;72.35;34.47;;;;;;;;;;5092880;28;20035;-71
2023/01/25 03:02:13;;;;;;;72.35;34.70;;;;;;;;;;5100680;28;20070;-71
2023/01/25 03:04:39;;;;;;;73.22;35.97;;;;;;;;;;5091735;28;20895;-71
2023/01/25 03:07:06;;;;;;;68.10;34.78;;;;;;;;;;5102742;28;20447;-71
2023/01/25 03:09:32;;;;;;;70.88;34.90;;;;;;;;;;5100392;28;20337;-71
2023/01/25 03:11:58;;;;;;;73.22;35.17;;;;;;;;;;5094887;28;20035;-71
2023/01/25 03:14:24;;;;;;;75.40;35.17;;;;;;;;;;5101746;28;20050;-71
2023/01/25 03:16:50;;;;;;;75.15;35.28;;;;;;;;;;5093064;28;20130;-71
2023/01/25 03:19:16;;;;;;;73.20;37.28;;;;;;;;;;5100295;27;20075;-71
2023/01/25 03:21:43;;;;;;;76.22;37.85;;;;;;;;;;5100689;28;20128;-71
2023/01/25 03:24:10;;;;;;;80.00;38.45;;;;;;;;;;5100391;28;20079;-71
2023/01/25 03:27:09;;;;;;;81.80;37.92;;;;;;;;;;5093211;28;20112;-71
2023/01/25 03:29:22;;;;;;;83.20;38.85;;;;;;;;;;5100184;28;20491;-71
2023/01/25 03:31:48;;;;;;;85.18;38.10;;;;;;;;;;5099390;28;20098;-71
2023/01/25 03:34:14;;;;;;;83.05;38.65;;;;;;;;;;5100181;28;20097;-71
2023/01/25 03:36:40;;;;;;;80.35;38.88;;;;;;;;;;5091957;28;20051;-71
2023/01/25 03:39:07;;;;;;;87.53;39.03;;;;;;;;;;5099571;28;20040;-71
2023/01/25 03:41:33;;;;;;;87.93;38.38;;;;;;;;;;5090002;28;20339;-71
2023/01/25 03:43:59;;;;;;;85.60;38.53;;;;;;;;;;5086880;28;20508;-71
2023/01/25 03:46:25;;;;;;;83.93;36.78;;;;;;;;;;5095725;28;20043;-71
2023/01/25 03:48:51;;;;;;;78.43;36.60;;;;;;;;;;5094698;28;20476;-71
2023/01/25 03:51:17;;;;;;;86.90;37.85;;;;;;;;;;5091010;28;20074;-71
2023/01/25 03:53:43;;;;;;;82.88;38.70;;;;;;;;;;5099833;28;20048;-71
2023/01/25 03:56:10;;;;;;;87.85;38.53;;;;;;;;;;5093464;28;20059;-72
2023/01/25 03:58:37;;;;;;;83.07;37.90;;;;;;;;;;5101165;28;20122;-72
2023/01/25 04:01:05;;;;;;;80.18;37.00;;;;;;;;;;5108163;27;20491;-72
2023/01/25 04:03:31;;;;;;;78.93;36.22;;;;;;;;;;5097364;28;20143;-71
2023/01/25 04:05:58;;;;;;;80.53;36.47;;;;;;;;;;5091749;28;20040;-72
2023/01/25 04:08:24;;;;;;;77.68;35.72;;;;;;;;;;5098408;28;20120;-71
2023/01/25 04:10:52;;;;;;;83.90;39.92;;;;;;;;;;5095670;28;20139;-72
2023/01/25 04:13:19;;;;;;;80.18;38.88;;;;;;;;;;5090793;28;20140;-72
2023/01/25 04:15:45;;;;;;;82.30;38.40;;;;;;;;;;5097953;27;20070;-72
2023/01/25 04:18:12;;;;;;;76.00;37.33;;;;;;;;;;5097275;28;20043;-72
2023/01/25 04:20:38;;;;;;;82.60;38.60;;;;;;;;;;5096585;28;20040;-72
2023/01/25 04:23:05;;;;;;;82.80;38.05;;;;;;;;;;5098957;28;20471;-71
2023/01/25 04:25:32;;;;;;;80.15;38.38;;;;;;;;;;5092239;28;20047;-71
2023/01/25 04:27:58;;;;;;;83.72;39.80;;;;;;;;;;5096934;28;20048;-72
2023/01/25 04:30:24;;;;;;;83.50;39.00;;;;;;;;;;5096586;28;20491;-72
2023/01/25 04:32:50;;;;;;;87.40;40.45;;;;;;;;;;5095852;28;20051;-72
2023/01/25 04:35:17;;;;;;;93.05;42.25;;;;;;;;;;5090022;28;20055;-72
2023/01/25 04:37:43;;;;;;;90.60;39.33;;;;;;;;;;5096439;28;20546;-72
2023/01/25 04:40:09;;;;;;;86.88;41.10;;;;;;;;;;5091035;28;20039;-72
2023/01/25 04:42:36;;;;;;;92.45;41.58;;;;;;;;;;5097487;28;20078;-72
2023/01/25 04:45:02;;;;;;;86.15;40.33;;;;;;;;;;5093597;28;20128;-72
2023/01/25 04:47:28;;;;;;;80.50;38.75;;;;;;;;;;5096674;28;20391;-72
2023/01/25 04:49:55;;;;;;;89.57;40.00;;;;;;;;;;5096494;28;20050;-71
2023/01/25 04:52:21;;;;;;;81.35;38.33;;;;;;;;;;5100655;28;20039;-72
2023/01/25 04:54:47;;;;;;;79.82;37.15;;;;;;;;;;5098273;28;20081;-72
2023/01/25 04:57:13;;;;;;;76.53;37.22;;;;;;;;;;5097371;27;20058;-71
2023/01/25 04:59:39;;;;;;;70.10;35.67;;;;;;;;;;5096688;28;20062;-72
2023/01/25 05:02:05;;;;;;;82.47;37.17;;;;;;;;;;5096987;28;20475;-71
2023/01/25 05:04:32;;;;;;;83.80;37.17;;;;;;;;;;5096499;28;20104;-72
2023/01/25 05:06:58;;;;;;;81.10;37.78;;;;;;;;;;5095197;28;20036;-72
2023/01/25 05:09:24;;;;;;;85.10;40.35;;;;;;;;;;5094987;27;20036;-72
2023/01/25 05:11:50;;;;;;;75.10;37.42;;;;;;;;;;5092839;28;21396;-72
2023/01/25 05:14:16;;;;;;;79.78;36.22;;;;;;;;;;5074485;28;20475;-72
2023/01/25 05:16:42;;;;;;;69.75;35.00;;;;;;;;;;5094894;28;20382;-72
2023/01/25 05:19:09;;;;;;;75.90;35.63;;;;;;;;;;5091807;28;20166;-71
2023/01/25 05:24:20;;;;;;;71.18;37.13;;;;;;;;;;5096686;28;20039;-72
2023/01/25 05:26:59;;;;;;;72.25;36.42;;;;;;;;;;5095771;28;20059;-72
2023/01/25 05:29:27;;;;;;;68.32;35.42;;;;;;;;;;5085832;28;20039;-72
2023/01/25 05:31:54;;;;;;;70.05;36.35;;;;;;;;;;5095661;28;20054;-71
2023/01/25 05:34:20;;;;;;;73.25;35.92;;;;;;;;;;5096495;28;20499;-72
2023/01/25 05:36:46;;;;;;;70.38;35.05;;;;;;;;;;5096924;28;20043;-73
2023/01/25 05:39:12;;;;;;;72.38;36.53;;;;;;;;;;5090386;28;20059;-73
2023/01/25 05:41:38;;;;;;;72.65;36.30;;;;;;;;;;5095400;28;20053;-72
2023/01/25 05:44:05;;;;;;;75.53;36.10;;;;;;;;;;5096132;28;20055;-72
2023/01/25 05:46:31;;;;;;;75.82;35.22;;;;;;;;;;5095283;28;20050;-73
2023/01/25 05:48:57;;;;;;;77.18;36.28;;;;;;;;;;5101191;28;20057;-73
2023/01/25 05:51:23;;;;;;;73.63;35.90;;;;;;;;;;5091693;28;20058;-73
2023/01/25 05:53:49;;;;;;;76.95;36.80;;;;;;;;;;5097442;28;20062;-73
2023/01/25 05:56:16;;;;;;;71.75;35.17;;;;;;;;;;5096302;28;20081;-73
2023/01/25 05:58:42;;;;;;;76.25;37.30;;;;;;;;;;5100211;28;20771;-73
2023/01/25 06:01:08;;;;;;;75.15;36.55;;;;;;;;;;5102077;28;20048;-73
2023/01/25 06:03:34;;;;;;;72.88;37.13;;;;;;;;;;5100128;28;20043;-73
2023/01/25 06:06:01;;;;;;;75.75;37.00;;;;;;;;;;5092158;28;20040;-73
2023/01/25 06:08:31;;;;;;;76.20;38.40;;;;;;;;;;5091940;28;20047;-73
2023/01/25 06:10:57;;;;;;;79.75;38.53;;;;;;;;;;5093914;28;20055;-73
2023/01/25 06:13:23;;;;;;;80.65;39.28;;;;;;;;;;5092360;28;20131;-73
2023/01/25 06:15:52;;;;;;;70.75;36.72;;;;;;;;;;5093237;28;20047;-73
2023/01/25 06:18:18;;;;;;;72.30;37.15;;;;;;;;;;5091694;28;20043;-73
2023/01/25 06:20:44;;;;;;;72.53;36.75;;;;;;;;;;5090226;28;20154;-73
2023/01/25 06:23:11;;;;;;;73.40;37.97;;;;;;;;;;5100751;28;20180;-73
2023/01/25 06:25:37;;;;;;;76.72;37.33;;;;;;;;;;5099963;28;20096;-74
2023/01/25 06:28:03;;;;;;;73.50;37.40;;;;;;;;;;5092471;27;20055;-73
2023/01/25 06:30:29;;;;;;;74.20;37.15;;;;;;;;;;5103920;28;20055;-74
2023/01/25 06:32:57;;;;;;;71.90;36.83;;;;;;;;;;5094365;28;20036;-72
2023/01/25 06:35:23;;;;;;;70.80;35.83;;;;;;;;;;5095745;28;20394;-73
2023/01/25 06:37:50;;;;;;;73.45;36.60;;;;;;;;;;5095940;28;20348;-73
2023/01/25 06:40:16;;;;;;;69.50;36.35;;;;;;;;;;5103430;28;20043;-73
2023/01/25 06:42:44;;;;;;;77.95;37.80;;;;;;;;;;5101926;28;20054;-73
2023/01/25 06:45:10;;;;;;;70.38;35.95;;;;;;;;;;5108044;28;20056;-72
2023/01/25 06:47:36;;;;;;;73.68;36.65;;;;;;;;;;5106454;28;20044;-73
2023/01/25 06:50:03;;;;;;;74.18;37.50;;;;;;;;;;5100616;28;20039;-74
2023/01/25 06:52:30;;;;;;;71.82;36.22;;;;;;;;;;5102264;28;20086;-75
2023/01/25 06:54:57;;;;;;;76.13;37.85;;;;;;;;;;5102081;28;20055;-75
2023/01/25 06:57:23;;;;;;;73.90;36.65;;;;;;;;;;5093460;28;20569;-75
2023/01/25 06:59:49;;;;;;;74.38;38.28;;;;;;;;;;5102445;28;20185;-75
2023/01/25 07:02:15;;;;;;;77.70;37.83;;;;;;;;;;5101121;28;20074;-75
2023/01/25 07:04:42;;;;;;;75.18;36.95;;;;;;;;;;5104535;28;20532;-75
2023/01/25 07:07:08;;;;;;;70.68;36.38;;;;;;;;;;5103734;28;20036;-75
2023/01/25 07:09:35;;;;;;;69.75;36.42;;;;;;;;;;5102368;28;21137;-75
2023/01/25 07:12:03;;;;;;;67.35;34.58;;;;;;;;;;5103760;28;20043;-75
2023/01/25 07:14:30;;;;;;;69.65;36.38;;;;;;;;;;5093198;28;20059;-75
2023/01/25 07:16:56;;;;;;;67.22;35.60;;;;;;;;;;5078116;28;20058;-75
2023/01/25 07:19:22;;;;;;;70.60;36.40;;;;;;;;;;5104262;28;20380;-74
2023/01/25 07:21:49;;;;;;;73.13;38.55;;;;;;;;;;5102658;28;20154;-74
2023/01/25 07:24:16;;;;;;;74.05;38.78;;;;;;;;;;5104216;28;20143;-74
2023/01/25 07:26:43;;;;;;;73.65;36.42;;;;;;;;;;5103923;28;20032;-74
2023/01/25 07:29:12;;;;;;;77.00;39.58;;;;;;;;;;5101868;28;20447;-74
2023/01/25 07:31:38;;;;;;;79.55;38.45;;;;;;;;;;5097297;27;20048;-74
2023/01/25 07:34:06;;;;;;;81.32;37.60;;;;;;;;;;5094782;28;20045;-71
2023/01/25 07:36:32;;;;;;;76.20;38.20;;;;;;;;;;5103567;28;20488;-71
2023/01/25 07:38:58;;;;;;;77.63;37.42;;;;;;;;;;5093505;28;20472;-72
2023/01/25 07:41:25;;;;;;;80.13;37.15;;;;;;;;;;5097965;28;20055;-73
2023/01/25 07:43:52;;;;;;;77.68;35.30;;;;;;;;;;5095899;28;20067;-73
2023/01/25 07:46:18;;;;;;;76.80;36.33;;;;;;;;;;5101308;28;20052;-73
2023/01/25 07:48:46;;;;;;;82.88;37.97;;;;;;;;;;5103391;28;20098;-73
2023/01/25 07:51:22;;;;;;;87.78;38.30;;;;;;;;;;5092086;28;20055;-73
2023/01/25 07:53:50;;;;;;;81.30;37.25;;;;;;;;;;5104267;28;20123;-73
2023/01/25 07:56:16;;;;;;;83.57;37.63;;;;;;;;;;5094505;28;20048;-73
2023/01/25 07:58:42;;;;;;;84.20;37.75;;;;;;;;;;5097957;28;20119;-72
2023/01/25 08:01:10;;;;;;;81.90;36.50;;;;;;;;;;5095357;28;20043;-72
2023/01/25 08:03:37;;;;;;;81.63;36.10;;;;;;;;;;5103719;28;20050;-71
2023/01/25 08:06:04;;;;;;;78.65;35.28;;;;;;;;;;5090071;28;20054;-72
2023/01/25 08:08:33;;;;;;;79.20;35.20;;;;;;;;;;5102714;28;20076;-72
2023/01/25 08:11:01;;;;;;;76.53;33.95;;;;;;;;;;5096165;28;20051;-71
2023/01/25 08:13:27;;;;;;;81.88;35.58;;;;;;;;;;5093279;28;20499;-72
2023/01/25 08:15:54;;;;;;;80.78;34.45;;;;;;;;;;5099460;28;20360;-72
2023/01/25 08:18:20;;;;;;;82.93;34.03;;;;;;;;;;5104395;28;20427;-72
2023/01/25 08:20:46;;;;;;;85.25;37.13;;;;;;;;;;5106436;28;20031;-72
2023/01/25 08:23:13;;;;;;;83.60;36.53;;;;;;;;;;5107736;28;20122;-72
2023/01/25 08:25:39;;;;;;;83.78;34.38;;;;;;;;;;5105356;28;20043;-72
2023/01/25 08:28:06;;;;;;;81.22;34.67;;;;;;;;;;5106559;28;20043;-72
2023/01/25 08:30:33;;;;;;;78.55;34.45;;;;;;;;;;5105113;28;20040;-72
2023/01/25 08:32:59;;;;;;;76.60;35.22;;;;;;;;;;5099800;28;20051;-73
2023/01/25 08:35:25;;;;;;;88.57;36.65;;;;;;;;;;5091602;28;20240;-72
2023/01/25 08:37:51;;;;;;;93.95;38.30;;;;;;;;;;5088194;28;20048;-72
2023/01/25 08:40:17;;;;;;;94.97;40.35;;;;;;;;;;5096213;28;20040;-71
2023/01/25 08:42:44;;;;;;;92.68;40.03;;;;;;;;;;5097803;28;20596;-72
2023/01/25 08:45:10;;;;;;;92.70;40.33;;;;;;;;;;5106191;28;20458;-72
2023/01/25 08:47:36;;;;;;;91.93;38.08;;;;;;;;;;5093783;28;20484;-72
2023/01/25 08:50:02;;;;;;;95.78;40.63;;;;;;;;;;5105992;28;20509;-73
2023/01/25 08:52:29;;;;;;;96.10;37.80;;;;;;;;;;5104719;28;20119;-73
2023/01/25 08:54:55;;;;;;;91.72;34.75;;;;;;;;;;5081086;28;20043;-73
2023/01/25 08:57:21;;;;;;;95.78;37.20;;;;;;;;;;5104943;28;20086;-73
2023/01/25 08:59:47;;;;;;;98.55;34.42;;;;;;;;;;5101405;27;20043;-73
2023/01/25 09:02:13;;;;;;;87.32;33.17;;;;;;;;;;5102133;28;20040;-73
2023/01/25 09:04:40;;;;;;;96.47;35.58;;;;;;;;;;5099034;28;20055;-73
2023/01/25 09:07:06;;;;;;;105.80;38.05;;;;;;;;;;5091407;28;20035;-73
2023/01/25 09:09:32;;;;;;;100.00;38.85;;;;;;;;;;5099625;28;20044;-73
2023/01/25 09:11:58;;;;;;;98.78;37.10;;;;;;;;;;5089736;28;20058;-73
2023/01/25 09:14:25;;;;;;;103.85;37.83;;;;;;;;;;5087298;28;20177;-73
2023/01/25 09:16:51;;;;;;;109.85;37.72;;;;;;;;;;5100547;28;20042;-73
2023/01/25 09:19:17;;;;;;;113.35;38.28;;;;;;;;;;5101736;28;20035;-73
2023/01/25 09:21:43;;;;;;;113.20;38.95;;;;;;;;;;5101461;28;20488;-73
2023/01/25 09:24:10;;;;;;;107.72;38.05;;;;;;;;;;5100429;28;20056;-73
2023/01/25 09:26:38;;;;;;;122.63;40.38;;;;;;;;;;5103700;28;20027;-74
2023/01/25 09:29:06;;;;;;;128.57;38.40;;;;;;;;;;5101874;28;20052;-73
2023/01/25 09:31:32;;;;;;;123.93;38.70;;;;;;;;;;5103248;28;20959;-73
2023/01/25 09:33:59;;;;;;;131.13;39.35;;;;;;;;;;5091652;28;20119;-71
2023/01/25 09:36:25;;;;;;;135.95;40.13;;;;;;;;;;5090964;28;20035;-73
2023/01/25 09:38:52;;;;;;;129.82;39.63;;;;;;;;;;5100019;28;20178;-70
2023/01/25 09:41:27;;;;;;;136.13;39.53;;;;;;;;;;5093191;28;20035;-72
2023/01/25 09:43:58;;;;;;;150.63;42.30;;;;;;;;;;5098226;28;20092;-71
2023/01/25 09:46:37;;;;;;;129.95;39.15;;;;;;;;;;5099882;28;20047;-71
2023/01/25 09:49:09;;;;;;;119.43;35.10;;;;;;;;;;5099581;28;20521;-71
2023/01/25 09:51:51;;;;;;;143.05;37.28;;;;;;;;;;5100447;28;20039;-72
2023/01/25 09:54:18;;;;;;;125.82;36.60;;;;;;;;;;5102313;28;20399;-72
2023/01/25 09:56:48;;;;;;;124.10;36.17;;;;;;;;;;5099329;28;20062;-72
2023/01/25 09:59:16;;;;;;;127.40;36.15;;;;;;;;;;5096834;28;20180;-71
2023/01/25 10:01:46;;;;;;;128.65;37.78;;;;;;;;;;5104719;28;20446;-70
2023/01/25 10:04:16;;;;;;;144.10;37.67;;;;;;;;;;5108532;28;20164;-71
2023/01/25 10:06:44;;;;;;;137.70;39.90;;;;;;;;;;5107355;28;20114;-72
2023/01/25 10:09:15;;;;;;;130.32;37.25;;;;;;;;;;5103940;27;20138;-71
2023/01/25 10:11:41;;;;;;;136.13;35.63;;;;;;;;;;5101020;28;20147;-71
2023/01/25 10:14:13;;;;;;;134.57;36.05;;;;;;;;;;5095844;28;20167;-72
2023/01/25 10:16:45;;;;;;;137.35;34.75;;;;;;;;;;5103428;28;20044;-72
2023/01/25 10:19:21;;;;;;;132.23;35.80;;;;;;;;;;5108422;27;20032;-71
2023/01/25 10:21:54;;;;;;;130.15;36.55;;;;;;;;;;5105509;28;20047;-72
2023/01/25 10:24:30;;;;;;;141.80;37.33;;;;;;;;;;5098384;28;20046;-73
2023/01/25 10:27:01;;;;;;;141.32;36.50;;;;;;;;;;5104308;28;20179;-72
2023/01/25 10:29:30;;;;;;;132.23;37.67;;;;;;;;;;5104399;28;20047;-72
2023/01/25 10:32:02;;;;;;;131.80;37.35;;;;;;;;;;5103110;28;20180;-72
2023/01/25 10:34:30;;;;;;;141.23;39.63;;;;;;;;;;5103096;27;20050;-72
2023/01/25 10:36:57;;;;;;;135.25;36.92;;;;;;;;;;5103150;28;20052;-72
2023/01/25 10:39:24;;;;;;;124.38;38.00;;;;;;;;;;5101784;27;20131;-71
2023/01/25 10:41:54;;;;;;;134.77;37.42;;;;;;;;;;5098986;28;20052;-71
2023/01/25 10:44:21;;;;;;;138.30;37.53;;;;;;;;;;5083868;28;20059;-72
2023/01/25 10:46:50;;;;;;;145.85;37.35;;;;;;;;;;5106111;28;20036;-72
2023/01/25 10:49:21;;;;;;;138.52;37.72;;;;;;;;;;5106354;28;20043;-73
2023/01/25 10:51:47;;;;;;;139.70;39.58;;;;;;;;;;5105493;28;20044;-72
2023/01/25 10:54:14;;;;;;;141.68;39.20;;;;;;;;;;5100424;28;20042;-72
2023/01/25 10:56:41;;;;;;;138.45;41.20;;;;;;;;;;5093849;28;20462;-71
2023/01/25 10:59:15;;;;;;;137.95;39.28;;;;;;;;;;5094050;28;20209;-72
2023/01/25 11:01:41;;;;;;;131.85;37.03;;;;;;;;;;5101393;28;20039;-71
2023/01/25 11:04:26;;;;;;;142.68;40.42;;;;;;;;;;5103654;28;20540;-72
2023/01/25 11:06:52;;;;;;;136.57;37.67;;;;;;;;;;5101732;28;20439;-71
2023/01/25 11:09:19;;;;;;;132.77;39.33;;;;;;;;;;5099543;27;20039;-71
2023/01/25 11:11:53;;;;;;;140.82;39.35;;;;;;;;;;5103087;28;20044;-72
2023/01/25 11:14:22;;;;;;;162.15;44.03;;;;;;;;;;5101822;28;20047;-71
2023/01/25 11:16:48;;;;;;;154.15;40.40;;;;;;;;;;5097383;28;20122;-71
2023/01/25 11:19:26;;;;;;;145.77;39.00;;;;;;;;;;5103257;28;20097;-71
2023/01/25 11:21:53;;;;;;;156.23;42.33;;;;;;;;;;5103090;27;20081;-71
2023/01/25 11:24:20;;;;;;;167.80;43.03;;;;;;;;;;5103453;28;20125;-71
2023/01/25 11:26:46;;;;;;;163.90;43.58;;;;;;;;;;5093698;28;20126;-72
2023/01/25 11:29:18;;;;;;;169.27;44.25;;;;;;;;;;5089861;28;20452;-69
2023/01/25 11:31:47;;;;;;;162.18;46.38;;;;;;;;;;5103569;27;20046;-72
2023/01/25 11:34:16;;;;;;;157.57;42.10;;;;;;;;;;5101438;28;20475;-70
2023/01/25 11:36:46;;;;;;;175.73;44.92;;;;;;;;;;5102113;27;20479;-69
2023/01/25 11:39:25;;;;;;;179.05;45.35;;;;;;;;;;5100928;28;20046;-69
2023/01/25 11:42:00;;;;;;;161.88;44.17;;;;;;;;;;5100439;28;20410;-70
2023/01/25 11:44:39;;;;;;;180.32;45.35;;;;;;;;;;5102531;28;20119;-70
2023/01/25 11:47:18;;;;;;;180.88;44.90;;;;;;;;;;5101483;28;21463;-70
2023/01/25 11:49:51;;;;;;;180.00;45.40;;;;;;;;;;5101860;28;20042;-70
2023/01/25 11:52:26;;;;;;;186.20;49.55;;;;;;;;;;5107082;27;20446;-69
2023/01/25 11:55:16;;;;;;;184.60;44.90;;;;;;;;;;5097461;27;20491;-69
2023/01/25 11:57:55;;;;;;;189.52;46.60;;;;;;;;;;5094380;28;20477;-72
2023/01/25 12:00:28;;;;;;;167.50;44.35;;;;;;;;;;5101195;28;20100;-72
2023/01/25 12:03:05;;;;;;;180.95;46.58;;;;;;;;;;5099786;28;20048;-72
2023/01/25 12:05:32;;;;;;;164.20;44.72;;;;;;;;;;5104971;28;20089;-71
2023/01/25 12:08:05;;;;;;;165.55;45.30;;;;;;;;;;5101627;28;20062;-71
2023/01/25 12:10:39;;;;;;;171.20;44.67;;;;;;;;;;5100167;28;20122;-71
2023/01/25 12:13:15;;;;;;;175.15;47.97;;;;;;;;;;5091796;28;20146;-71
2023/01/25 12:15:56;;;;;;;162.38;43.10;;;;;;;;;;5105747;28;20395;-71
2023/01/25 12:18:29;;;;;;;157.75;43.58;;;;;;;;;;5094025;28;20046;-71
2023/01/25 12:20:55;;;;;;;154.00;43.28;;;;;;;;;;5104413;28;20035;-71
2023/01/25 12:23:29;;;;;;;158.68;44.78;;;;;;;;;;5096071;28;20048;-72
2023/01/25 12:26:04;;;;;;;158.32;45.00;;;;;;;;;;5100298;28;20125;-72
2023/01/25 12:28:31;;;;;;;146.13;41.72;;;;;;;;;;5092863;28;20047;-71
2023/01/25 12:31:02;;;;;;;142.18;40.47;;;;;;;;;;5098674;28;20048;-71
2023/01/25 12:33:36;;;;;;;148.00;44.13;;;;;;;;;;5101601;28;20048;-71
2023/01/25 12:36:07;;;;;;;123.75;39.05;;;;;;;;;;5099207;28;20055;-71
2023/01/25 12:38:43;;;;;;;151.82;43.58;;;;;;;;;;5101177;28;21869;-71
2023/01/25 12:41:10;;;;;;;152.80;45.33;;;;;;;;;;5103397;28;20133;-71
2023/01/25 12:43:44;;;;;;;134.25;41.33;;;;;;;;;;5102043;28;20047;-71
2023/01/25 12:46:15;;;;;;;132.77;39.85;;;;;;;;;;5091500;28;20501;-71
2023/01/25 12:48:46;;;;;;;143.05;42.05;;;;;;;;;;5100933;28;20086;-70
2023/01/25 12:51:13;;;;;;;134.88;41.75;;;;;;;;;;5100678;28;20036;-71
2023/01/25 12:53:41;;;;;;;143.10;41.25;;;;;;;;;;5090995;28;20039;-71
2023/01/25 12:56:09;;;;;;;135.63;40.20;;;;;;;;;;5098542;28;20136;-71
2023/01/25 12:58:41;;;;;;;131.88;41.53;;;;;;;;;;5104866;28;20063;-70
2023/01/25 13:01:07;;;;;;;146.63;43.22;;;;;;;;;;5101604;28;20465;-71
2023/01/25 13:03:35;;;;;;;128.90;40.65;;;;;;;;;;5105881;28;20051;-71
2023/01/25 13:06:05;;;;;;;128.10;41.33;;;;;;;;;;5091775;28;21488;-71
2023/01/25 13:08:39;;;;;;;122.57;42.10;;;;;;;;;;5097329;28;20040;-74
2023/01/25 13:11:12;;;;;;;136.00;43.13;;;;;;;;;;5099926;28;20043;-71
2023/01/25 13:13:38;;;;;;;132.30;41.75;;;;;;;;;;5094846;28;20477;-72
2023/01/25 13:16:23;;;;;;;125.53;41.80;;;;;;;;;;5100379;28;20402;-72
2023/01/25 13:18:49;;;;;;;120.75;39.35;;;;;;;;;;5099840;28;20498;-71
2023/01/25 13:21:34;;;;;;;133.38;44.50;;;;;;;;;;5094789;28;20147;-71
2023/01/25 13:24:11;;;;;;;115.60;39.80;;;;;;;;;;5092320;28;20089;-69
2023/01/25 13:26:38;;;;;;;122.53;40.85;;;;;;;;;;5092209;28;20040;-70
2023/01/25 13:29:24;;;;;;;126.53;42.95;;;;;;;;;;5093966;28;20044;-70
2023/01/25 13:31:52;;;;;;;125.57;41.10;;;;;;;;;;5103681;28;20122;-71
2023/01/25 13:34:41;;;;;;;123.00;39.85;;;;;;;;;;5104498;28;20133;-71
2023/01/25 13:37:28;;;;;;;118.10;39.78;;;;;;;;;;5100066;28;20086;-71
2023/01/25 13:39:56;;;;;;;118.45;41.88;;;;;;;;;;5098670;28;20084;-82
2023/01/25 13:42:24;;;;;;;113.05;40.50;;;;;;;;;;5093037;28;20254;-73
2023/01/25 13:44:52;;;;;;;119.20;41.40;;;;;;;;;;5080203;28;20051;-72
2023/01/25 13:47:20;;;;;;;111.53;41.63;;;;;;;;;;5060140;28;20048;-72
2023/01/25 13:49:49;;;;;;;114.50;40.88;;;;;;;;;;5062484;28;20636;-72
2023/01/25 13:52:17;;;;;;;114.22;42.58;;;;;;;;;;5081019;28;20032;-72
2023/01/25 13:54:44;;;;;;;109.15;40.90;;;;;;;;;;5082323;28;20049;-72
2023/01/25 13:57:12;;;;;;;101.40;40.70;;;;;;;;;;5065418;28;20127;-72
2023/01/25 13:59:38;;;;;;;108.13;40.35;;;;;;;;;;5082119;28;20044;-72
2023/01/25 14:02:12;;;;;;;109.80;42.80;;;;;;;;;;5079478;28;20040;-72
2023/01/25 14:04:39;;;;;;;105.72;40.72;;;;;;;;;;5078974;28;20044;-73
2023/01/25 14:07:08;;;;;;;104.40;41.20;;;;;;;;;;5081072;28;20036;-73
2023/01/25 14:09:36;;;;;;;103.47;38.67;;;;;;;;;;5069464;28;20040;-73
2023/01/25 14:12:03;;;;;;;108.40;39.33;;;;;;;;;;5076975;28;20109;-74
2023/01/25 14:14:31;;;;;;;101.30;40.83;;;;;;;;;;5081938;28;20044;-72
2023/01/25 14:17:09;;;;;;;104.90;40.88;;;;;;;;;;5079983;28;20109;-71
2023/01/25 14:19:37;;;;;;;103.80;41.20;;;;;;;;;;5076410;28;20170;-75
2023/01/25 14:22:10;;;;;;;106.63;40.15;;;;;;;;;;5080113;28;20059;-73